Time;durP1;ratioP1;P1;durP2;ratioP2;P2;SDS_P1;SDS_P2;PMS_P1;PMS_P2;Temp;Humidity;BMP_temperature;BMP_pressure;BME280_temperature;BME280_humidity;BME280_pressure;Samples;Min_cycle;Max_cycle;Signal;HPM_P1;HPM_P2
2021/05/11 00:01:50;;;;;;;6.65;2.00;;;17.10;65.60;;;;;;5027812;28;20033;-80
2021/05/11 00:04:15;;;;;;;5.93;1.73;;;17.10;65.50;;;;;;5012802;28;20519;-80
2021/05/11 00:06:41;;;;;;;7.18;4.18;;;17.00;65.60;;;;;;5013974;28;20053;-80
2021/05/11 00:09:07;;;;;;;5.68;2.95;;;17.00;65.70;;;;;;5025522;28;20082;-79
2021/05/11 00:11:34;;;;;;;9.35;5.50;;;17.00;65.90;;;;;;5033040;28;20030;-79
2021/05/11 00:14:01;;;;;;;5.05;3.08;;;17.00;66.00;;;;;;5029327;28;20065;-81
2021/05/11 00:16:26;;;;;;;9.57;4.88;;;17.00;66.00;;;;;;5025684;28;20030;-79
2021/05/11 00:18:52;;;;;;;6.60;3.50;;;17.00;66.00;;;;;;5034346;28;20041;-80
2021/05/11 00:21:18;;;;;;;7.47;4.65;;;17.00;66.20;;;;;;5040862;28;20042;-79
2021/05/11 00:23:43;;;;;;;5.95;3.35;;;17.00;66.20;;;;;;5029674;28;20035;-79
2021/05/11 00:26:09;;;;;;;6.10;3.30;;;17.00;66.30;;;;;;5041987;28;20041;-80
2021/05/11 00:28:35;;;;;;;7.63;3.13;;;17.00;66.40;;;;;;5014068;28;20489;-79
2021/05/11 00:31:00;;;;;;;8.43;4.63;;;17.00;66.50;;;;;;5047007;28;20470;-79
2021/05/11 00:33:26;;;;;;;5.18;3.20;;;16.90;66.50;;;;;;5029341;28;20033;-79
2021/05/11 00:35:51;;;;;;;5.05;2.28;;;17.00;66.60;;;;;;5013790;28;20029;-79
2021/05/11 00:38:17;;;;;;;9.48;4.50;;;16.90;66.80;;;;;;5046305;28;20628;-79
2021/05/11 00:40:43;;;;;;;5.53;3.97;;;16.90;66.90;;;;;;5032499;28;20025;-80
2021/05/11 00:43:08;;;;;;;7.32;4.32;;;16.90;67.00;;;;;;5016622;28;20049;-80
2021/05/11 00:45:34;;;;;;;9.20;5.43;;;16.90;67.20;;;;;;5026538;28;20034;-80
2021/05/11 00:48:00;;;;;;;6.35;3.22;;;16.90;67.20;;;;;;5013993;28;20458;-79
2021/05/11 00:50:25;;;;;;;10.15;4.20;;;16.90;67.40;;;;;;5023135;28;20036;-79
2021/05/11 00:52:51;;;;;;;5.47;3.95;;;16.90;67.60;;;;;;5030137;28;20501;-80
2021/05/11 00:55:17;;;;;;;4.68;2.50;;;16.80;67.70;;;;;;5027196;28;20053;-80
2021/05/11 00:57:44;;;;;;;6.65;3.10;;;16.80;67.90;;;;;;5016338;28;20032;-80
2021/05/11 01:00:11;;;;;;;5.60;2.53;;;16.80;68.20;;;;;;5013256;28;20093;-81
2021/05/11 01:02:37;;;;;;;5.97;2.60;;;16.70;68.50;;;;;;5013101;28;20038;-80
2021/05/11 01:05:05;;;;;;;4.80;2.20;;;16.70;68.80;;;;;;5040027;28;20040;-80
2021/05/11 01:07:31;;;;;;;3.60;1.50;;;16.50;69.10;;;;;;5031260;28;20456;-81
2021/05/11 01:09:58;;;;;;;5.38;1.85;;;16.40;69.70;;;;;;5021988;28;20029;-81
2021/05/11 01:12:24;;;;;;;4.03;1.02;;;16.40;70.40;;;;;;5029724;28;20026;-78
2021/05/11 01:14:51;;;;;;;3.40;1.08;;;16.20;70.90;;;;;;5013229;28;20038;-80
2021/05/11 01:17:22;;;;;;;4.18;1.45;;;16.10;71.90;;;;;;5012459;28;20030;-80
2021/05/11 01:24:44;;;;;;;4.13;1.23;;;15.80;73.80;;;;;;5033510;28;20040;-80
2021/05/11 01:43:51;;;;;;;6.90;1.50;;;15.40;77.00;;;;;;5015190;28;20083;-79
2021/05/11 01:44:20;;;;;;;6.43;1.88;;;14.80;79.70;;;;;;5030600;28;20160;-80
2021/05/11 02:24:04;;;;;;;4.72;2.53;;;15.30;78.40;;;;;;5024326;28;20041;-81
2021/05/11 02:26:30;;;;;;;4.65;2.63;;;15.30;78.20;;;;;;5021624;28;20037;-81
2021/05/11 02:28:55;;;;;;;6.32;3.08;;;15.40;78.10;;;;;;5016048;28;20394;-82
2021/05/11 02:31:21;;;;;;;5.70;2.10;;;15.40;77.90;;;;;;5028065;28;20056;-82
2021/05/11 02:33:46;;;;;;;6.07;2.40;;;15.30;77.90;;;;;;5031982;28;20033;-81
2021/05/11 02:36:12;;;;;;;4.35;3.20;;;15.30;78.10;;;;;;5020874;28;20028;-82
2021/05/11 02:38:38;;;;;;;5.70;2.80;;;15.20;78.20;;;;;;5012250;28;20539;-81
2021/05/11 02:41:03;;;;;;;6.18;1.70;;;15.30;78.00;;;;;;5009962;28;20040;-81
2021/05/11 02:43:35;;;;;;;4.78;2.00;;;15.30;78.00;;;;;;5030087;28;20103;-82
2021/05/11 02:46:01;;;;;;;5.68;3.15;;;15.20;78.20;;;;;;5013925;28;20044;-81
2021/05/11 02:48:26;;;;;;;5.82;2.88;;;15.10;78.40;;;;;;5014546;28;20128;-82
2021/05/11 02:50:52;;;;;;;5.13;2.85;;;15.10;78.30;;;;;;5008200;28;20036;-80
2021/05/11 02:53:18;;;;;;;5.15;3.10;;;15.20;78.30;;;;;;5034955;28;20088;-80
2021/05/11 02:55:43;;;;;;;5.18;2.13;;;15.20;78.20;;;;;;5019432;28;20104;-80
2021/05/11 02:58:13;;;;;;;4.88;2.55;;;15.30;78.10;;;;;;5018745;28;20030;-80
2021/05/11 03:00:39;;;;;;;3.83;2.38;;;15.30;78.00;;;;;;5011073;28;20121;-82
2021/05/11 03:03:05;;;;;;;6.20;2.15;;;15.30;78.00;;;;;;5056262;28;20029;-81
2021/05/11 03:05:31;;;;;;;5.78;2.30;;;15.30;78.10;;;;;;5026862;28;20029;-84
2021/05/11 03:07:57;;;;;;;4.20;1.92;;;15.30;78.20;;;;;;5023625;28;20030;-81
2021/05/11 03:10:22;;;;;;;6.22;1.60;;;15.20;78.80;;;;;;5014019;28;20744;-80
2021/05/11 03:12:49;;;;;;;7.72;2.15;;;15.10;78.50;;;;;;5029148;28;20501;-81
2021/05/11 03:15:15;;;;;;;3.45;1.88;;;15.10;78.90;;;;;;5012270;28;20029;-79
2021/05/11 03:17:41;;;;;;;5.38;1.95;;;15.00;79.20;;;;;;5003008;28;20097;-81
2021/05/11 03:20:09;;;;;;;3.92;2.20;;;14.90;79.60;;;;;;5024767;28;20038;-81
2021/05/11 03:22:35;;;;;;;7.90;2.40;;;14.80;79.90;;;;;;5022365;28;20112;-81
2021/05/11 03:25:01;;;;;;;4.00;1.50;;;14.80;80.10;;;;;;5029781;28;20455;-81
2021/05/11 03:27:27;;;;;;;3.95;1.88;;;14.70;80.30;;;;;;5027215;28;20032;-81
2021/05/11 03:29:52;;;;;;;4.82;1.88;;;14.70;80.70;;;;;;5008610;28;20644;-81
2021/05/11 03:32:18;;;;;;;3.67;2.05;;;14.60;80.80;;;;;;5011917;28;20033;-81
2021/05/11 03:34:44;;;;;;;6.13;2.45;;;14.60;80.90;;;;;;5030230;28;20146;-81
2021/05/11 03:37:09;;;;;;;4.55;1.60;;;14.60;81.10;;;;;;5014493;28;20069;-81
2021/05/11 03:39:39;;;;;;;7.28;2.55;;;14.60;81.10;;;;;;5014304;28;20148;-81
2021/05/11 03:42:14;;;;;;;4.78;1.95;;;14.60;81.20;;;;;;5010670;28;20044;-80
2021/05/11 03:44:43;;;;;;;4.35;2.08;;;14.60;81.40;;;;;;5019761;28;20034;-81
2021/05/11 03:47:09;;;;;;;3.97;1.73;;;14.50;81.40;;;;;;5016943;28;20036;-81
2021/05/11 03:49:34;;;;;;;5.80;2.00;;;14.50;81.70;;;;;;5034332;28;20033;-80
2021/05/11 03:52:00;;;;;;;5.47;2.10;;;14.50;82.20;;;;;;5014424;28;20030;-80
2021/05/11 03:54:26;;;;;;;4.28;2.20;;;14.40;82.40;;;;;;5014628;28;20034;-81
2021/05/11 03:56:51;;;;;;;3.92;2.10;;;14.30;82.50;;;;;;5031091;28;20038;-82
2021/05/11 03:59:19;;;;;;;5.53;1.90;;;14.30;82.70;;;;;;5061918;28;20557;-80
2021/05/11 04:01:45;;;;;;;4.65;1.73;;;14.30;82.80;;;;;;5017195;28;20117;-80
2021/05/11 04:04:11;;;;;;;2.85;1.92;;;14.30;82.90;;;;;;5034513;28;20450;-81
2021/05/11 04:06:39;;;;;;;4.25;2.25;;;14.20;82.80;;;;;;5018633;28;20116;-81
2021/05/11 04:09:12;;;;;;;3.97;2.28;;;14.30;82.90;;;;;;5033390;28;20044;-81
2021/05/11 04:16:35;;;;;;;4.45;2.40;;;14.30;83.20;;;;;;5031179;28;20135;-83
2021/05/11 04:19:01;;;;;;;5.30;2.65;;;14.30;83.10;;;;;;5009304;28;20671;-80
2021/05/11 04:21:27;;;;;;;5.47;2.60;;;14.30;83.10;;;;;;5009804;28;20061;-80
2021/05/11 04:23:53;;;;;;;4.75;2.50;;;14.30;83.10;;;;;;5014736;28;20112;-80
2021/05/11 04:26:20;;;;;;;4.38;2.45;;;14.30;83.30;;;;;;5020040;28;20050;-82
2021/05/11 04:28:47;;;;;;;5.75;2.33;;;14.30;83.40;;;;;;5020397;28;20516;-82
2021/05/11 04:31:14;;;;;;;4.28;2.53;;;14.30;83.50;;;;;;5027038;28;20050;-81
2021/05/11 04:33:40;;;;;;;7.53;2.75;;;14.30;83.40;;;;;;5025943;28;20030;-80
2021/05/11 04:36:06;;;;;;;4.28;2.63;;;14.30;83.40;;;;;;5009916;28;20033;-80
2021/05/11 04:38:32;;;;;;;3.80;2.72;;;14.30;83.80;;;;;;5011100;28;20076;-82
2021/05/11 04:40:58;;;;;;;4.07;2.38;;;14.30;83.60;;;;;;5011103;28;20390;-81
2021/05/11 04:43:25;;;;;;;5.07;2.78;;;14.30;83.60;;;;;;5025928;28;20054;-82
2021/05/11 04:46:03;;;;;;;3.63;2.33;;;14.40;83.70;;;;;;5027658;28;20022;-82
2021/05/11 04:48:29;;;;;;;4.80;2.55;;;14.40;83.60;;;;;;5012759;28;20038;-81
2021/05/11 04:50:56;;;;;;;5.75;2.75;;;14.60;83.40;;;;;;5031618;28;20176;-80
2021/05/11 04:53:22;;;;;;;6.90;3.47;;;14.60;83.20;;;;;;5020093;28;20030;-80
2021/05/11 04:55:48;;;;;;;6.68;3.45;;;14.60;83.40;;;;;;5026568;28;20030;-84
2021/05/11 04:58:14;;;;;;;6.78;3.05;;;14.50;83.50;;;;;;5016531;28;20064;-81
2021/05/11 05:00:41;;;;;;;3.45;2.53;;;14.50;83.50;;;;;;5020053;28;20033;-81
2021/05/11 05:03:11;;;;;;;4.75;3.08;;;14.60;83.50;;;;;;5016948;28;20037;-81
2021/05/11 05:05:36;;;;;;;7.15;2.88;;;14.60;83.30;;;;;;5026166;28;20032;-80
2021/05/11 05:08:02;;;;;;;5.22;3.20;;;14.60;83.60;;;;;;5029987;28;20026;-80
2021/05/11 05:10:28;;;;;;;4.18;3.22;;;14.60;83.60;;;;;;5016696;28;20037;-81
2021/05/11 05:12:53;;;;;;;4.97;2.97;;;14.50;83.80;;;;;;5012389;28;20117;-81
2021/05/11 05:15:19;;;;;;;4.72;2.85;;;14.50;83.90;;;;;;5031173;28;20419;-79
2021/05/11 05:17:44;;;;;;;4.95;2.90;;;14.60;83.80;;;;;;5034321;28;20040;-80
2021/05/11 05:20:11;;;;;;;5.90;3.10;;;14.70;83.60;;;;;;5030504;28;20040;-81
2021/05/11 05:22:37;;;;;;;5.30;3.80;;;14.80;83.50;;;;;;5014510;28;20148;-80
2021/05/11 05:25:14;;;;;;;7.15;3.10;;;14.90;83.50;;;;;;5015101;28;20045;-81
2021/05/11 05:27:57;;;;;;;5.35;3.85;;;14.90;83.50;;;;;;5017012;28;20021;-79
2021/05/11 05:30:24;;;;;;;4.57;3.03;;;14.90;83.50;;;;;;5027254;28;20087;-80
2021/05/11 05:32:53;;;;;;;5.72;3.00;;;14.90;83.50;;;;;;5013812;28;20069;-80
2021/05/11 05:35:19;;;;;;;5.85;2.75;;;15.00;83.40;;;;;;5024250;28;20029;-80
2021/05/11 05:37:45;;;;;;;6.00;2.90;;;15.10;83.00;;;;;;5032724;28;20034;-81
2021/05/11 05:40:12;;;;;;;5.45;2.70;;;15.20;82.80;;;;;;5012725;28;20048;-80
2021/05/11 05:42:37;;;;;;;4.63;3.03;;;15.20;82.80;;;;;;5028092;28;20054;-80
2021/05/11 05:45:04;;;;;;;4.35;3.00;;;15.20;82.60;;;;;;5013324;28;20034;-81
2021/05/11 05:47:30;;;;;;;5.20;2.95;;;15.30;82.50;;;;;;4996763;28;20377;-80
2021/05/11 05:50:05;;;;;;;4.18;3.00;;;15.30;82.40;;;;;;5001633;28;20042;-82
2021/05/11 05:52:35;;;;;;;5.85;2.97;;;15.20;82.40;;;;;;5027854;28;20045;-80
2021/05/11 05:55:04;;;;;;;5.97;3.17;;;15.20;82.40;;;;;;5015495;28;20064;-79
2021/05/11 05:57:29;;;;;;;10.40;3.25;;;15.20;82.60;;;;;;5033788;28;20493;-80
2021/05/11 05:59:55;;;;;;;5.07;2.92;;;15.20;82.60;;;;;;5015035;28;20041;-81
2021/05/11 06:02:23;;;;;;;5.80;3.72;;;15.20;82.50;;;;;;5032033;28;20041;-80
2021/05/11 06:04:48;;;;;;;6.93;3.42;;;15.30;82.60;;;;;;5015214;28;20636;-80
2021/05/11 06:07:17;;;;;;;6.82;3.60;;;15.30;82.50;;;;;;5031584;28;20025;-79
2021/05/11 06:09:43;;;;;;;4.70;3.13;;;15.40;82.10;;;;;;5029042;28;20033;-79
2021/05/11 06:12:27;;;;;;;6.65;4.05;;;15.50;81.90;;;;;;5038719;28;20041;-80
2021/05/11 06:17:27;;;;;;;8.00;4.13;;;15.60;81.60;;;;;;5013398;28;20121;-79
2021/05/11 06:19:54;;;;;;;5.53;3.80;;;15.60;81.60;;;;;;5023081;28;20128;-81
2021/05/11 06:22:21;;;;;;;6.47;3.78;;;15.60;81.60;;;;;;5011008;28;20107;-80
2021/05/11 06:24:47;;;;;;;6.55;3.80;;;15.70;81.40;;;;;;5011841;28;20030;-79
2021/05/11 06:27:13;;;;;;;5.05;3.13;;;15.80;81.10;;;;;;4991663;28;20129;-80
2021/05/11 06:29:43;;;;;;;7.03;4.65;;;16.00;80.60;;;;;;5045138;28;20037;-80
2021/05/11 06:32:10;;;;;;;8.18;3.30;;;16.20;79.90;;;;;;5043060;28;20030;-80
2021/05/11 06:34:39;;;;;;;5.03;3.75;;;16.40;79.80;;;;;;5014174;28;20096;-80
2021/05/11 06:37:04;;;;;;;7.13;3.00;;;16.80;79.30;;;;;;5031727;28;20025;-81
2021/05/11 06:39:30;;;;;;;6.82;3.00;;;17.50;78.20;;;;;;5010902;28;20422;-79
2021/05/11 06:41:57;;;;;;;3.75;2.85;;;18.10;76.30;;;;;;5013323;28;20423;-80
2021/05/11 06:47:27;;;;;;;4.55;2.70;;;19.50;72.50;;;;;;5026175;28;20048;-80
2021/05/11 06:54:59;;;;;;;5.80;2.30;;;21.70;65.90;;;;;;5026928;28;20047;-78
2021/05/11 06:57:26;;;;;;;4.90;2.38;;;22.30;63.60;;;;;;5028871;28;20481;-78
2021/05/11 06:59:52;;;;;;;5.60;3.67;;;22.60;62.40;;;;;;5014618;28;20064;-77
2021/05/11 07:02:18;;;;;;;6.95;4.68;;;22.60;61.40;;;;;;5010849;28;20104;-77
2021/05/11 07:04:47;;;;;;;5.57;3.85;;;22.40;61.50;;;;;;5013034;28;20556;-78
2021/05/11 07:07:14;;;;;;;6.45;5.80;;;22.00;62.10;;;;;;5013719;28;20030;-79
2021/05/11 07:09:58;;;;;;;6.15;5.18;;;21.70;62.70;;;;;;5004678;28;20038;-79
2021/05/11 07:15:09;;;;;;;9.00;7.75;;;21.10;63.70;;;;;;5012522;28;20092;-82
2021/05/11 07:17:34;;;;;;;11.98;10.77;;;20.90;64.30;;;;;;5004306;28;20044;-79
2021/05/11 07:20:00;;;;;;;8.18;5.15;;;20.60;64.70;;;;;;5025679;28;20045;-76
2021/05/11 07:22:26;;;;;;;9.57;8.35;;;20.30;65.60;;;;;;5008281;28;20885;-80
2021/05/11 07:24:54;;;;;;;8.15;5.30;;;19.90;66.20;;;;;;4999155;28;20482;-78
2021/05/11 07:30:27;;;;;;;9.23;7.55;;;19.60;67.20;;;;;;5013226;28;20272;-78
2021/05/11 07:32:44;;;;;;;6.60;4.63;;;19.50;67.50;;;;;;5010224;28;20038;-82
2021/05/11 07:35:10;;;;;;;10.48;6.63;;;19.60;67.60;;;;;;5012367;28;20033;-82
2021/05/11 07:37:35;;;;;;;9.38;7.43;;;19.50;67.70;;;;;;5039817;28;20359;-79
2021/05/11 07:40:02;;;;;;;9.13;5.50;;;19.60;67.60;;;;;;5011516;28;20049;-77
2021/05/11 07:42:28;;;;;;;7.45;3.58;;;19.50;67.70;;;;;;5006647;28;20061;-79
2021/05/11 07:44:58;;;;;;;11.23;8.68;;;19.30;67.60;;;;;;5026480;28;20041;-77
2021/05/11 07:47:35;;;;;;;7.63;6.38;;;19.00;68.40;;;;;;5007525;28;20033;-77
2021/05/11 08:17:00;;;;;;;18.48;5.40;;;18.50;69.20;;;;;;5014555;28;20470;-78
2021/05/11 08:22:18;;;;;;;8.32;3.38;;;18.70;69.70;;;;;;5016227;28;20440;-77
2021/05/11 08:29:56;;;;;;;10.05;2.97;;;18.30;71.10;;;;;;5029162;28;20405;-81
2021/05/11 08:32:22;;;;;;;6.45;2.72;;;18.30;71.10;;;;;;5010250;28;20080;-81
2021/05/11 08:34:48;;;;;;;4.57;1.50;;;18.50;70.70;;;;;;5025573;28;20034;-79
2021/05/11 08:37:16;;;;;;;5.55;2.13;;;18.60;70.00;;;;;;5018225;28;20044;-80
2021/05/11 08:39:42;;;;;;;5.55;1.65;;;18.70;69.60;;;;;;5010362;28;20038;-80
2021/05/11 08:42:08;;;;;;;5.68;1.75;;;18.70;69.30;;;;;;5014224;28;20018;-80
2021/05/11 08:44:35;;;;;;;5.85;1.38;;;18.80;69.20;;;;;;5013267;28;20513;-81
2021/05/11 08:47:01;;;;;;;3.13;1.38;;;18.70;69.20;;;;;;5022079;28;20032;-81
2021/05/11 08:49:26;;;;;;;4.72;1.35;;;18.70;69.60;;;;;;5029523;28;20113;-80
2021/05/11 09:45:03;;;;;;;4.38;1.40;;;18.80;70.10;;;;;;5026052;28;20037;-82
2021/05/11 10:39:05;;;;;;;3.22;0.70;;;20.80;61.00;;;;;;5011633;28;20049;-81
2021/05/11 10:47:01;;;;;;;8.25;1.70;;;20.60;61.90;;;;;;5041933;28;20076;-82
2021/05/11 10:49:30;;;;;;;5.65;1.35;;;20.50;62.20;;;;;;5050075;28;20038;-81
2021/05/11 10:52:08;;;;;;;4.57;1.45;;;20.40;62.40;;;;;;5020797;28;20030;-82
2021/05/11 10:54:46;;;;;;;4.43;1.23;;;20.30;62.80;;;;;;5012206;28;20038;-81
2021/05/11 11:00:22;;;;;;;3.03;1.40;;;20.10;63.60;;;;;;5036957;28;20109;-82
2021/05/11 11:03:15;;;;;;;4.80;1.25;;;20.10;63.70;;;;;;5039740;28;20040;-81
2021/05/11 11:05:42;;;;;;;4.00;0.93;;;20.00;63.40;;;;;;5030442;28;20026;-84
2021/05/11 11:08:34;;;;;;;5.70;1.55;;;19.90;62.80;;;;;;5017509;28;20497;-80
2021/05/11 11:11:17;;;;;;;4.43;1.17;;;19.80;62.50;;;;;;5034274;28;20467;-79
2021/05/11 11:13:53;;;;;;;3.03;1.00;;;19.70;62.40;;;;;;5034735;28;20041;-85
2021/05/11 11:16:20;;;;;;;3.60;1.13;;;19.80;62.60;;;;;;5022159;28;20493;-81
2021/05/11 11:18:47;;;;;;;2.72;0.90;;;19.80;62.90;;;;;;5036827;28;20044;-79
2021/05/11 11:23:44;;;;;;;4.97;1.25;;;20.10;62.20;;;;;;5032997;28;20154;-85
2021/05/11 11:26:13;;;;;;;2.75;0.98;;;20.10;61.90;;;;;;5034250;28;20057;-81
2021/05/11 11:28:39;;;;;;;4.20;1.25;;;20.20;61.90;;;;;;5037063;28;20021;-81
2021/05/11 11:31:35;;;;;;;4.57;1.20;;;20.20;61.90;;;;;;5032166;28;20576;-80
2021/05/11 11:34:24;;;;;;;2.95;1.58;;;20.20;62.20;;;;;;5018733;28;20057;-81
2021/05/11 11:36:55;;;;;;;3.70;1.58;;;20.20;62.30;;;;;;5033063;28;20033;-77
2021/05/11 11:39:23;;;;;;;5.72;2.10;;;20.20;62.50;;;;;;5035763;28;20044;-83
2021/05/11 11:41:54;;;;;;;4.60;1.75;;;20.10;62.90;;;;;;5035805;28;20033;-82
2021/05/11 11:44:22;;;;;;;2.90;1.55;;;20.00;63.20;;;;;;5035731;28;20049;-78
2021/05/11 11:47:07;;;;;;;4.53;1.90;;;20.00;63.30;;;;;;5013544;28;20105;-81
2021/05/11 11:49:37;;;;;;;5.55;2.25;;;19.90;63.40;;;;;;5016800;28;20044;-81
2021/05/11 11:52:11;;;;;;;4.20;1.83;;;19.80;63.30;;;;;;5022958;28;20029;-77
2021/05/11 12:00:05;;;;;;;6.10;2.42;;;19.70;64.00;;;;;;5025313;28;20144;-81
2021/05/11 12:02:31;;;;;;;5.22;2.15;;;19.60;64.20;;;;;;5026827;28;20044;-83
2021/05/11 12:05:09;;;;;;;4.40;1.70;;;19.50;64.00;;;;;;5029326;28;20065;-81
2021/05/11 12:07:43;;;;;;;3.28;1.90;;;19.40;63.60;;;;;;5021180;28;20026;-83
2021/05/11 12:10:10;;;;;;;5.43;1.90;;;19.40;63.40;;;;;;5038142;28;20025;-81
2021/05/11 12:12:37;;;;;;;4.22;2.00;;;19.40;63.40;;;;;;5016804;28;20069;-81
2021/05/11 12:15:15;;;;;;;5.80;2.85;;;19.40;63.70;;;;;;5022764;28;20556;-81
2021/05/11 12:17:45;;;;;;;5.80;2.35;;;19.40;64.10;;;;;;5062424;28;20037;-82
2021/05/11 12:20:25;;;;;;;6.18;2.65;;;19.40;64.10;;;;;;5030987;28;20588;-82
2021/05/11 12:23:14;;;;;;;7.28;2.63;;;19.40;64.50;;;;;;5031762;28;20470;-84
2021/05/11 12:25:54;;;;;;;9.25;3.78;;;19.60;64.70;;;;;;5025253;28;20018;-82
2021/05/11 12:28:35;;;;;;;5.93;3.90;;;19.70;64.70;;;;;;5038702;28;20037;-82
2021/05/11 12:31:03;;;;;;;7.57;3.38;;;19.80;64.20;;;;;;5036469;28;20017;-80
2021/05/11 12:33:47;;;;;;;7.10;3.90;;;19.90;64.80;;;;;;5030039;28;20097;-81
2021/05/11 12:36:20;;;;;;;6.10;4.03;;;20.00;64.70;;;;;;5021230;28;20026;-82
2021/05/11 12:38:48;;;;;;;6.95;3.75;;;20.20;64.00;;;;;;5054261;28;20033;-83
2021/05/11 12:41:33;;;;;;;7.10;3.72;;;20.20;63.40;;;;;;5033894;28;20463;-83
2021/05/11 12:44:04;;;;;;;5.80;3.30;;;19.90;63.20;;;;;;5013761;28;20081;-82
2021/05/11 12:46:37;;;;;;;3.92;2.58;;;19.80;63.80;;;;;;5025716;28;20386;-82
2021/05/11 12:49:17;;;;;;;6.78;2.70;;;20.00;63.70;;;;;;5060312;28;20036;-81
2021/05/11 12:51:49;;;;;;;6.65;3.03;;;20.30;63.40;;;;;;5033583;28;20090;-82
2021/05/11 13:16:42;;;;;;;7.57;2.80;;;20.00;63.00;;;;;;5027235;28;20037;-84
2021/05/11 13:29:43;;;;;;;11.68;4.72;;;19.30;62.90;;;;;;5036332;28;20034;-88
2021/05/11 13:32:19;;;;;;;8.18;3.33;;;19.00;63.90;;;;;;5005975;28;20030;-84
2021/05/11 13:34:45;;;;;;;9.48;5.03;;;18.80;64.40;;;;;;5027688;28;20030;-85
2021/05/11 13:37:11;;;;;;;9.52;3.90;;;18.80;64.90;;;;;;5022461;28;20042;-83
2021/05/11 13:39:37;;;;;;;6.95;2.67;;;18.80;64.90;;;;;;5035214;28;20441;-84
2021/05/11 13:42:02;;;;;;;7.35;2.72;;;18.60;64.60;;;;;;5020215;28;20541;-84
2021/05/11 13:44:28;;;;;;;9.25;4.72;;;18.60;65.00;;;;;;5066198;28;20083;-83
2021/05/11 13:46:55;;;;;;;7.32;3.30;;;18.70;65.10;;;;;;5042552;28;20402;-84
2021/05/11 13:49:20;;;;;;;8.77;4.22;;;18.70;64.60;;;;;;5011566;28;20034;-83
2021/05/11 13:51:46;;;;;;;7.38;3.50;;;19.00;64.60;;;;;;5021024;28;20109;-83
2021/05/11 13:54:14;;;;;;;7.30;3.90;;;19.20;63.00;;;;;;5038422;28;20152;-86
2021/05/11 13:57:25;;;;;;;8.60;4.35;;;19.00;63.60;;;;;;5040425;28;20045;-84
2021/05/11 14:04:58;;;;;;;5.38;2.95;;;19.20;63.30;;;;;;5036663;28;20029;-85
2021/05/11 14:07:24;;;;;;;5.90;2.75;;;19.20;63.20;;;;;;5024546;28;20030;-85
2021/05/11 14:09:50;;;;;;;6.75;2.63;;;19.00;62.70;;;;;;5021842;28;20466;-85
2021/05/11 14:12:16;;;;;;;4.82;2.45;;;18.70;63.20;;;;;;5030216;28;20088;-86
2021/05/11 14:14:42;;;;;;;5.75;2.60;;;18.50;62.90;;;;;;5031716;28;20030;-84
2021/05/11 14:17:07;;;;;;;8.70;2.38;;;18.40;63.50;;;;;;5029752;28;20030;-83
2021/05/11 14:19:35;;;;;;;9.63;2.80;;;18.30;64.10;;;;;;5017840;28;20040;-84
2021/05/11 14:22:01;;;;;;;5.70;2.90;;;18.50;64.10;;;;;;5013244;28;20107;-82
2021/05/11 14:24:27;;;;;;;6.70;2.42;;;18.80;64.20;;;;;;5002158;28;20842;-83
2021/05/11 14:26:52;;;;;;;3.63;2.25;;;19.00;63.90;;;;;;5019499;28;20105;-81
2021/05/11 14:29:18;;;;;;;7.65;2.50;;;18.90;63.70;;;;;;5025397;28;20072;-81
2021/05/11 14:31:44;;;;;;;7.32;2.85;;;18.60;64.60;;;;;;5034572;28;20387;-81
2021/05/11 14:34:10;;;;;;;14.35;6.85;;;18.40;65.20;;;;;;5016788;28;20037;-84
2021/05/11 14:36:36;;;;;;;10.38;2.85;;;18.20;65.60;;;;;;5020315;28;20449;-82
2021/05/11 14:39:04;;;;;;;7.47;2.10;;;18.10;65.60;;;;;;5034368;28;20137;-83
2021/05/11 14:41:29;;;;;;;5.07;2.00;;;18.00;65.70;;;;;;5018597;28;20026;-82
2021/05/11 14:43:55;;;;;;;5.20;2.10;;;17.90;65.80;;;;;;5040041;28;20057;-82
2021/05/11 14:46:21;;;;;;;6.30;2.08;;;17.80;66.20;;;;;;5026144;28;20030;-81
2021/05/11 14:48:46;;;;;;;11.63;5.13;;;18.00;66.30;;;;;;5011812;28;20120;-83
2021/05/11 14:51:12;;;;;;;9.68;5.28;;;18.00;66.40;;;;;;5060430;28;20049;-87
2021/05/11 14:53:38;;;;;;;5.13;2.75;;;18.00;66.60;;;;;;5039305;28;20034;-84
2021/05/11 14:56:08;;;;;;;6.25;2.42;;;17.90;66.40;;;;;;5037365;28;20033;-85
2021/05/11 14:58:33;;;;;;;5.30;2.55;;;17.90;66.80;;;;;;5025022;28;20029;-82
2021/05/11 15:00:59;;;;;;;4.97;2.17;;;17.90;66.60;;;;;;5063056;28;20052;-81
2021/05/11 15:03:25;;;;;;;4.55;1.80;;;17.90;66.70;;;;;;5060119;28;20085;-84
2021/05/11 15:05:50;;;;;;;7.00;2.65;;;17.90;66.70;;;;;;5063502;28;20026;-86
2021/05/11 15:08:16;;;;;;;5.30;2.30;;;17.90;66.60;;;;;;5044633;28;20147;-90
2021/05/11 15:10:43;;;;;;;6.03;2.10;;;18.10;67.10;;;;;;5032048;28;20034;-85
2021/05/11 15:13:09;;;;;;;5.43;2.10;;;18.10;67.40;;;;;;5028869;28;20030;-84
2021/05/11 15:15:36;;;;;;;6.53;3.20;;;18.20;67.90;;;;;;5016539;28;20788;-83
2021/05/11 15:18:04;;;;;;;6.50;2.70;;;18.40;68.60;;;;;;5034253;28;20121;-84
2021/05/11 15:20:34;;;;;;;9.23;3.03;;;18.30;69.00;;;;;;5015708;28;20037;-82
2021/05/11 15:23:01;;;;;;;8.38;3.58;;;18.40;69.40;;;;;;5030623;28;20018;-82
2021/05/11 15:25:28;;;;;;;8.10;3.63;;;18.30;69.90;;;;;;5012215;28;20113;-83
2021/05/11 15:27:54;;;;;;;7.60;3.45;;;18.30;70.60;;;;;;5012676;28;20021;-83
2021/05/11 15:30:23;;;;;;;8.63;3.78;;;18.20;70.80;;;;;;5016048;28;20472;-85
2021/05/11 15:32:56;;;;;;;8.23;4.20;;;18.00;71.20;;;;;;5026799;28;20033;-82
2021/05/11 15:35:33;;;;;;;10.38;5.20;;;17.80;71.50;;;;;;5014439;28;20079;-85
2021/05/11 15:38:01;;;;;;;7.68;4.28;;;17.70;72.20;;;;;;5018326;28;20018;-83
2021/05/11 15:40:36;;;;;;;8.63;4.80;;;17.60;72.80;;;;;;5015167;28;20473;-83
2021/05/11 15:43:02;;;;;;;8.05;4.25;;;17.50;73.90;;;;;;5030584;28;20033;-82
2021/05/11 15:45:28;;;;;;;7.30;4.13;;;17.50;74.00;;;;;;5018390;28;20049;-82
2021/05/11 15:48:01;;;;;;;14.63;8.50;;;17.50;74.40;;;;;;5044461;28;20058;-81
2021/05/11 15:50:38;;;;;;;12.05;5.80;;;17.40;74.40;;;;;;5028798;28;20037;-82
2021/05/11 15:53:07;;;;;;;10.18;5.57;;;17.40;74.50;;;;;;5024682;28;20026;-81
2021/05/11 15:55:38;;;;;;;16.60;10.82;;;17.40;75.30;;;;;;5029510;28;20026;-82
2021/05/11 15:58:05;;;;;;;10.25;6.97;;;17.10;75.90;;;;;;5053145;28;20033;-81
2021/05/11 16:00:31;;;;;;;7.72;5.10;;;17.10;76.50;;;;;;5049795;28;20474;-80
2021/05/11 16:03:03;;;;;;;18.55;9.95;;;17.00;76.90;;;;;;5025357;28;20466;-82
2021/05/11 16:05:30;;;;;;;30.65;14.63;;;16.80;77.80;;;;;;5029624;28;20053;-81
2021/05/11 16:07:55;;;;;;;18.67;11.60;;;16.70;77.80;;;;;;5026362;28;20044;-84
2021/05/11 16:10:21;;;;;;;16.35;7.68;;;16.70;78.30;;;;;;5057299;28;20042;-84
2021/05/11 16:12:47;;;;;;;15.98;8.32;;;16.70;78.40;;;;;;5033024;28;20052;-83
2021/05/11 16:15:19;;;;;;;9.68;5.90;;;16.50;78.70;;;;;;5033204;28;20022;-82
2021/05/11 16:17:45;;;;;;;12.98;7.35;;;16.30;79.30;;;;;;5016277;28;20056;-83
2021/05/11 16:20:12;;;;;;;16.20;8.93;;;16.10;79.50;;;;;;5031580;28;20034;-81
2021/05/11 16:22:38;;;;;;;18.55;10.80;;;16.00;79.70;;;;;;5017591;28;20364;-82
2021/05/11 16:25:06;;;;;;;18.77;10.50;;;16.00;79.80;;;;;;5034508;28;20029;-82
2021/05/11 16:27:32;;;;;;;19.02;9.45;;;16.00;80.20;;;;;;5031278;28;20021;-82
2021/05/11 16:29:58;;;;;;;32.25;17.65;;;16.00;80.40;;;;;;5030093;28;20718;-83
2021/05/11 16:32:23;;;;;;;23.63;14.43;;;16.10;80.60;;;;;;5034970;28;20041;-84
2021/05/11 16:34:49;;;;;;;23.00;12.35;;;16.20;80.50;;;;;;5037085;28;20110;-84
2021/05/11 16:37:15;;;;;;;12.07;6.75;;;16.20;80.30;;;;;;5053055;28;20128;-82
2021/05/11 16:39:41;;;;;;;46.88;26.60;;;16.10;80.20;;;;;;5038003;28;20030;-84
2021/05/11 16:42:08;;;;;;;42.55;22.77;;;16.10;80.40;;;;;;5043495;28;20085;-85
2021/05/11 16:44:35;;;;;;;21.27;13.32;;;16.20;80.70;;;;;;5036609;28;20042;-85
2021/05/11 16:47:01;;;;;;;21.80;12.60;;;16.30;80.60;;;;;;5044996;28;20042;-85
2021/05/11 16:49:27;;;;;;;22.30;14.63;;;16.20;80.00;;;;;;5040930;28;20498;-85
2021/05/11 16:51:53;;;;;;;34.38;21.77;;;16.20;79.70;;;;;;5032372;28;20026;-83
2021/05/11 16:54:19;;;;;;;28.10;14.73;;;16.20;79.80;;;;;;5034723;28;20030;-84
2021/05/11 16:56:45;;;;;;;19.08;9.77;;;16.30;80.10;;;;;;5050127;28;20060;-83
2021/05/11 16:59:10;;;;;;;16.73;11.52;;;16.30;80.10;;;;;;5028495;28;20030;-86
2021/05/11 17:01:36;;;;;;;16.55;8.43;;;16.20;80.30;;;;;;5033812;28;20033;-86
2021/05/11 17:04:02;;;;;;;16.33;10.63;;;16.20;80.90;;;;;;5050808;28;20398;-85
2021/05/11 17:06:30;;;;;;;11.27;8.25;;;16.20;80.90;;;;;;5082987;28;20024;-84
2021/05/11 17:08:56;;;;;;;14.80;7.15;;;16.20;80.80;;;;;;5048353;28;20026;-85
2021/05/11 17:11:22;;;;;;;15.88;9.95;;;16.20;80.70;;;;;;5036242;28;20028;-85
2021/05/11 17:13:48;;;;;;;9.77;6.55;;;16.20;80.80;;;;;;5070848;28;20041;-86
2021/05/11 17:16:15;;;;;;;7.93;5.40;;;16.20;80.50;;;;;;5052611;28;20089;-85
2021/05/11 17:18:40;;;;;;;12.25;6.15;;;16.10;80.20;;;;;;5036894;28;20075;-84
2021/05/11 17:21:09;;;;;;;8.35;6.13;;;16.10;80.20;;;;;;5037799;28;20113;-87
2021/05/11 17:23:35;;;;;;;16.92;9.32;;;16.20;80.30;;;;;;5027085;28;20026;-86